Bluff City, AR

8:33 AM CDT on August 31, 2015 (GMT -0500)
HopePrescott.com Hope Office | | Change Station
CLOSE
Current Station
Personal Weather Station
Location: Hope, AR
Elevation: 357 ft
Nearby Weather Stations

Elev 357 ft 33.66 °N, 93.59 °W | Updated 4 seconds ago

Clear
Clear
74.8 °F
Feels Like 73 °F
N
0.0
Wind Variable Wind from North
Gusts 0.0 mph

Today
High -- | Low -- °F
--% Chance of Precip.
Yesterday
High -- | Low -- °F
Precip. -- in
6:45 AM 7:39 PM
Waning Gibbous, 95% visible
Pressure 30.05 in
Visibility 6.0 miles
Clouds Clear
Heat Index 73 °F
Dew Point 73 °F
Humidity 93%
Rainfall 0.00 in
Snow Depth Not available.
UV 1 out of 12
Pollen 8.50 out of 12
Air Quality Not available.
Flu Activity Not available.
METAR KCDH 311315Z AUTO 00000KT 6SM BR CLR 22/20 A3005 RMK AO2
Pressure 30.05 in
Visibility 6.0 miles
Clouds Clear
Heat Index 73 °F
Dew Point 73 °F
Humidity 93%
Rainfall 0.00 in
Snow Depth Not available.
UV 1 out of 12
Pollen 8.50 out of 12
Air Quality Not available.
Flu Activity Not available.
METAR KCDH 311315Z AUTO 00000KT 6SM BR CLR 22/20 A3005 RMK AO2

10-Day Weather Forecast

×

Almanac

Astronomy

Aug. 31, 2015 Rise Set
Actual Time
Civil Twilight
Nautical Twilight
Astronomical Twilight
Moon
Length of Visible Light
Length of Day
Tomorrow will be .
, % of the Moon is Illuminated

Today's Extremes

State Highs State Lows

Community

WunderPhotos

Upload Photos

1,851,218 photos uploaded!

WunderBlogs® & News

Nearby

Air Quality

  Air Quality AQ Index Pollutant
Not available.

Snow Depth

Station Depth Elevation

Earthquake Activity

City Distance Mag. Time & Date
Minimum magnitude displayed is 2.5.

Coastal Water Temperatures

Place Temperature

Stations

Nearby Weather Stations

Station Location Temp. Windchill Dew Point Humidity Wind Precip. Elev Updated Type